Time;durP1;ratioP1;P1;durP2;ratioP2;P2;SDS_P1;SDS_P2;PMS_P1;PMS_P2;Temp;Humidity;BMP_temperature;BMP_pressure;BME280_temperature;BME280_humidity;BME280_pressure;Samples;Min_cycle;Max_cycle;Signal;HPM_P1;HPM_P2
2022/03/17 00:01:27;;;;;;;22.25;14.55;;;10.50;99.90;;;;;;5090352;28;20108;-62
2022/03/17 00:03:52;;;;;;;22.45;15.02;;;10.40;99.90;;;;;;5092031;28;20047;-63
2022/03/17 00:06:18;;;;;;;23.63;14.82;;;10.50;99.90;;;;;;5088941;28;20039;-66
2022/03/17 00:08:44;;;;;;;23.65;16.58;;;10.40;99.90;;;;;;5092602;28;20042;-62
2022/03/17 00:11:09;;;;;;;22.00;15.63;;;10.50;99.90;;;;;;5110357;28;20062;-63
2022/03/17 00:13:35;;;;;;;24.23;15.25;;;10.40;99.90;;;;;;5109126;28;20043;-63
2022/03/17 00:16:01;;;;;;;23.00;15.25;;;10.40;99.90;;;;;;5091458;28;20482;-65
2022/03/17 00:18:27;;;;;;;20.92;15.13;;;10.40;99.90;;;;;;5109689;28;20135;-63
2022/03/17 00:20:52;;;;;;;23.58;15.82;;;10.40;99.90;;;;;;5110533;28;20127;-63
2022/03/17 00:23:18;;;;;;;24.00;15.95;;;10.40;99.90;;;;;;5091447;28;20055;-63
2022/03/17 00:25:44;;;;;;;22.38;14.85;;;10.40;99.90;;;;;;5091176;28;20083;-62
2022/03/17 00:28:10;;;;;;;23.80;14.30;;;10.40;99.90;;;;;;5091760;28;20047;-62
2022/03/17 00:30:36;;;;;;;24.90;15.60;;;10.30;99.90;;;;;;5109765;28;20055;-63
2022/03/17 00:33:02;;;;;;;20.38;13.05;;;10.40;99.90;;;;;;5093463;28;20119;-62
2022/03/17 00:35:38;;;;;;;25.52;14.38;;;10.30;99.90;;;;;;5074754;28;20039;-63
2022/03/17 00:38:08;;;;;;;21.48;13.02;;;10.30;99.90;;;;;;5073508;28;20091;-63
2022/03/17 00:40:38;;;;;;;23.23;15.27;;;10.30;99.90;;;;;;5088646;28;20132;-62
2022/03/17 00:43:05;;;;;;;21.88;13.63;;;10.30;99.90;;;;;;5074704;28;20371;-62
2022/03/17 00:45:31;;;;;;;20.77;14.38;;;10.30;99.90;;;;;;5109627;28;20052;-62
2022/03/17 00:47:57;;;;;;;23.83;13.88;;;10.30;99.90;;;;;;5109058;28;20051;-64
2022/03/17 00:50:24;;;;;;;24.35;14.98;;;10.30;99.90;;;;;;5109503;28;20547;-63
2022/03/17 00:52:50;;;;;;;25.10;15.38;;;10.30;99.90;;;;;;5092291;28;20458;-63
2022/03/17 00:55:16;;;;;;;28.75;18.73;;;10.30;99.90;;;;;;5108592;28;20055;-62
2022/03/17 00:57:42;;;;;;;22.00;14.40;;;10.20;99.90;;;;;;5105249;28;20052;-62
2022/03/17 01:00:10;;;;;;;25.27;18.15;;;10.30;99.90;;;;;;5095373;28;20055;-64
2022/03/17 01:02:36;;;;;;;26.80;16.92;;;10.30;99.90;;;;;;5092420;28;20496;-63
2022/03/17 01:05:02;;;;;;;21.05;14.13;;;10.20;99.90;;;;;;5094270;28;20044;-62
2022/03/17 01:07:28;;;;;;;22.80;13.90;;;10.20;99.90;;;;;;5082272;28;20086;-64
2022/03/17 01:09:54;;;;;;;28.55;16.20;;;10.20;99.90;;;;;;5105634;28;20342;-62
2022/03/17 01:12:20;;;;;;;24.88;16.92;;;10.00;99.90;;;;;;5110388;28;20051;-65
2022/03/17 01:14:47;;;;;;;26.10;17.98;;;10.20;99.90;;;;;;5108908;28;20438;-62
2022/03/17 01:17:13;;;;;;;21.95;13.68;;;10.20;99.90;;;;;;5109706;28;20063;-63
2022/03/17 01:19:38;;;;;;;23.15;15.85;;;10.20;99.90;;;;;;5108975;28;20047;-63
2022/03/17 01:22:04;;;;;;;25.92;15.73;;;10.20;99.90;;;;;;5109727;28;20430;-64
2022/03/17 01:24:30;;;;;;;22.50;14.27;;;10.20;99.90;;;;;;5110534;28;20047;-64
2022/03/17 01:26:55;;;;;;;24.52;15.63;;;10.20;99.90;;;;;;5092444;28;20556;-64
2022/03/17 01:29:21;;;;;;;27.77;16.50;;;10.20;99.90;;;;;;5110891;28;20043;-63
2022/03/17 01:31:47;;;;;;;26.50;16.27;;;10.10;99.90;;;;;;5113282;28;20043;-63
2022/03/17 01:34:13;;;;;;;21.20;14.70;;;10.20;99.90;;;;;;5096328;28;20047;-64
2022/03/17 01:36:38;;;;;;;26.40;18.52;;;10.20;99.90;;;;;;5114114;28;20039;-66
2022/03/17 01:39:05;;;;;;;25.27;14.85;;;10.10;99.90;;;;;;5114629;28;20047;-64
2022/03/17 01:41:30;;;;;;;24.40;16.08;;;10.10;99.90;;;;;;5114156;28;20051;-76
2022/03/17 01:43:56;;;;;;;26.65;15.98;;;10.10;99.90;;;;;;5114235;28;20040;-63
2022/03/17 01:46:22;;;;;;;23.23;14.32;;;10.10;99.90;;;;;;5114206;28;20031;-66
2022/03/17 01:48:48;;;;;;;30.15;17.25;;;10.10;99.90;;;;;;5113894;28;20036;-67
2022/03/17 01:51:14;;;;;;;26.65;15.40;;;10.10;99.90;;;;;;5114306;28;20046;-67
2022/03/17 01:53:40;;;;;;;27.58;18.17;;;10.10;99.90;;;;;;5113662;28;20055;-63
2022/03/17 01:56:09;;;;;;;25.13;16.58;;;10.10;99.90;;;;;;5114323;28;20047;-63
2022/03/17 01:58:34;;;;;;;23.77;17.00;;;10.00;99.90;;;;;;5113958;28;20043;-64
2022/03/17 02:01:01;;;;;;;24.35;15.73;;;10.00;99.90;;;;;;5114002;28;20047;-65
2022/03/17 02:03:27;;;;;;;27.98;17.05;;;10.00;99.90;;;;;;5096046;28;20087;-65
2022/03/17 02:05:54;;;;;;;28.17;15.82;;;10.00;99.90;;;;;;5113979;28;20047;-64
2022/03/17 02:08:20;;;;;;;23.27;15.73;;;10.00;99.90;;;;;;5113761;28;20050;-64
2022/03/17 02:13:30;;;;;;;25.83;16.20;;;10.00;99.90;;;;;;5114038;28;20054;-65
2022/03/17 02:15:57;;;;;;;24.77;13.73;;;10.10;99.90;;;;;;5113390;28;20366;-63
2022/03/17 02:18:23;;;;;;;22.92;14.38;;;10.10;99.90;;;;;;5113495;28;20055;-64
2022/03/17 02:20:49;;;;;;;25.92;14.15;;;10.10;99.90;;;;;;5113385;28;20059;-63
2022/03/17 02:26:03;;;;;;;23.70;14.20;;;10.10;99.90;;;;;;5113381;28;20111;-64
2022/03/17 02:28:31;;;;;;;24.48;16.52;;;10.10;99.90;;;;;;5113544;28;20047;-63
2022/03/17 02:30:59;;;;;;;23.33;15.63;;;10.10;99.90;;;;;;5113127;28;20059;-63
2022/03/17 02:33:25;;;;;;;26.20;17.50;;;10.10;99.90;;;;;;5113472;28;20051;-63
2022/03/17 02:35:53;;;;;;;26.55;16.88;;;10.10;99.90;;;;;;5112849;28;20043;-63
2022/03/17 02:38:20;;;;;;;26.30;16.63;;;10.10;99.90;;;;;;5113215;28;20050;-64
2022/03/17 02:40:52;;;;;;;26.30;16.83;;;10.10;99.90;;;;;;5094441;28;20043;-64
2022/03/17 02:43:19;;;;;;;25.73;16.88;;;10.10;99.90;;;;;;5112472;28;20469;-63
2022/03/17 02:45:46;;;;;;;24.67;16.70;;;10.10;99.90;;;;;;5094827;28;20043;-64
2022/03/17 02:48:12;;;;;;;22.38;13.85;;;10.10;99.90;;;;;;5113094;28;20157;-64
2022/03/17 02:50:39;;;;;;;29.08;16.45;;;10.10;99.90;;;;;;5113033;28;20039;-65
2022/03/17 02:53:09;;;;;;;28.02;15.90;;;10.10;99.90;;;;;;5113079;28;20043;-64
2022/03/17 02:55:36;;;;;;;22.35;14.95;;;10.10;99.90;;;;;;5112440;28;20104;-64
2022/03/17 02:58:03;;;;;;;25.88;18.77;;;10.10;99.90;;;;;;5094553;28;20097;-65
2022/03/17 03:00:29;;;;;;;27.25;15.95;;;10.00;99.90;;;;;;5094545;28;20130;-64
2022/03/17 03:02:54;;;;;;;24.23;15.90;;;10.00;99.90;;;;;;5111940;28;20178;-64
2022/03/17 03:05:21;;;;;;;26.90;16.73;;;10.00;99.90;;;;;;5094472;28;20080;-64
2022/03/17 03:07:47;;;;;;;28.25;18.40;;;10.00;99.90;;;;;;5112447;28;20069;-65
2022/03/17 03:10:13;;;;;;;27.13;16.30;;;10.00;99.90;;;;;;5094548;28;20035;-64
2022/03/17 03:12:40;;;;;;;23.92;15.63;;;10.00;99.90;;;;;;5112656;28;20047;-64
2022/03/17 03:15:06;;;;;;;25.00;14.10;;;10.00;99.90;;;;;;5112229;28;20389;-65
2022/03/17 03:17:32;;;;;;;29.70;19.20;;;10.00;99.90;;;;;;5112236;28;20055;-65
2022/03/17 03:19:58;;;;;;;22.45;14.20;;;10.00;99.90;;;;;;5112275;28;20051;-64
2022/03/17 03:22:29;;;;;;;28.23;17.65;;;10.10;99.90;;;;;;5094146;28;20126;-64
2022/03/17 03:24:56;;;;;;;28.80;18.55;;;10.10;99.90;;;;;;5112268;28;20378;-64
2022/03/17 03:27:27;;;;;;;27.20;17.90;;;10.10;99.90;;;;;;5112509;28;20043;-65
2022/03/17 03:29:56;;;;;;;26.42;17.55;;;10.10;99.90;;;;;;5094147;28;20051;-64
2022/03/17 03:32:23;;;;;;;22.60;13.77;;;10.10;99.90;;;;;;5094832;28;20046;-64
2022/03/17 03:34:49;;;;;;;23.60;15.90;;;10.10;99.90;;;;;;5111570;28;20051;-64
2022/03/17 03:37:24;;;;;;;21.55;14.40;;;10.20;99.90;;;;;;5112368;28;20079;-68
2022/03/17 03:39:55;;;;;;;24.75;16.05;;;10.20;99.90;;;;;;5112125;28;20089;-64
2022/03/17 03:42:22;;;;;;;25.92;18.83;;;10.40;99.90;;;;;;5112215;28;20051;-63
2022/03/17 03:44:48;;;;;;;24.10;16.77;;;10.50;99.90;;;;;;5111950;28;20039;-64
2022/03/17 03:47:15;;;;;;;23.75;16.92;;;10.50;99.90;;;;;;5111541;28;20500;-65
2022/03/17 03:49:42;;;;;;;26.40;17.25;;;10.50;99.90;;;;;;5093997;28;20396;-64
2022/03/17 03:52:11;;;;;;;23.17;15.73;;;10.60;99.90;;;;;;5111678;28;20442;-63
2022/03/17 03:54:37;;;;;;;26.05;18.40;;;10.60;99.90;;;;;;5111018;28;20052;-64
2022/03/17 03:57:04;;;;;;;22.48;15.88;;;10.60;99.90;;;;;;5111451;28;20070;-66
2022/03/17 03:59:31;;;;;;;23.25;15.35;;;10.60;99.90;;;;;;5093380;28;20451;-64
2022/03/17 04:02:02;;;;;;;26.08;17.75;;;10.60;99.90;;;;;;5111529;28;20047;-66
2022/03/17 04:04:29;;;;;;;23.80;16.17;;;10.60;99.90;;;;;;5111935;28;20371;-65
2022/03/17 04:07:01;;;;;;;27.45;18.00;;;10.60;99.90;;;;;;5093319;28;20379;-65
2022/03/17 04:09:29;;;;;;;25.95;18.85;;;10.60;99.90;;;;;;5111843;28;20469;-65
2022/03/17 04:11:56;;;;;;;23.75;16.38;;;10.60;99.90;;;;;;5111150;28;20039;-64
2022/03/17 04:14:22;;;;;;;24.92;17.17;;;10.60;99.90;;;;;;5111572;28;20370;-64
2022/03/17 04:16:48;;;;;;;25.58;17.27;;;10.60;99.90;;;;;;5111578;28;20036;-64
2022/03/17 04:19:17;;;;;;;29.90;22.17;;;10.60;99.90;;;;;;5112001;28;20047;-65
2022/03/17 04:21:44;;;;;;;32.55;20.65;;;10.50;99.90;;;;;;5092921;28;20048;-66
2022/03/17 04:24:10;;;;;;;26.38;19.13;;;10.50;99.90;;;;;;5111213;28;20044;-64
2022/03/17 04:26:36;;;;;;;27.92;21.25;;;10.40;99.90;;;;;;5111612;28;20362;-64
2022/03/17 04:29:02;;;;;;;29.40;20.02;;;10.30;99.90;;;;;;5111047;28;20638;-65
2022/03/17 04:31:29;;;;;;;30.02;21.30;;;10.30;99.90;;;;;;5111056;28;20036;-65
2022/03/17 04:33:55;;;;;;;34.50;23.70;;;10.20;99.90;;;;;;5110869;28;20051;-65
2022/03/17 04:36:21;;;;;;;31.02;20.20;;;10.10;99.90;;;;;;5111220;28;20052;-65
2022/03/17 04:38:47;;;;;;;35.58;20.85;;;10.00;99.90;;;;;;5111616;28;20048;-65
2022/03/17 04:41:13;;;;;;;34.92;23.73;;;10.00;99.90;;;;;;5111151;28;20043;-67
2022/03/17 04:43:39;;;;;;;33.58;24.10;;;10.00;99.90;;;;;;5111277;28;20043;-64
2022/03/17 04:46:09;;;;;;;34.80;25.05;;;9.90;99.90;;;;;;5092628;28;20431;-63
2022/03/17 04:48:35;;;;;;;39.97;26.17;;;9.90;99.90;;;;;;5111201;28;20447;-65
2022/03/17 04:51:01;;;;;;;32.92;23.35;;;9.90;99.90;;;;;;5110664;28;20130;-64
2022/03/17 04:53:27;;;;;;;35.67;25.35;;;9.90;99.90;;;;;;5092898;28;20135;-64
2022/03/17 04:56:05;;;;;;;35.88;24.98;;;9.80;99.90;;;;;;5092288;28;20074;-65
2022/03/17 04:58:32;;;;;;;48.03;27.20;;;9.80;99.90;;;;;;5110877;28;20059;-65
2022/03/17 05:01:00;;;;;;;36.78;24.95;;;9.80;99.90;;;;;;5110386;28;20055;-69
2022/03/17 05:03:26;;;;;;;38.50;24.65;;;9.70;99.90;;;;;;5092875;28;20492;-65
2022/03/17 05:05:52;;;;;;;42.83;29.70;;;9.70;99.90;;;;;;5114502;28;20043;-65
2022/03/17 05:08:18;;;;;;;43.42;29.40;;;9.60;99.90;;;;;;5114596;28;20146;-64
2022/03/17 05:10:47;;;;;;;47.15;28.42;;;9.60;99.90;;;;;;5096928;28;20050;-65
2022/03/17 05:13:14;;;;;;;39.83;27.13;;;9.60;99.90;;;;;;5096597;28;20130;-67
2022/03/17 05:15:41;;;;;;;45.83;29.77;;;9.50;99.90;;;;;;5114947;28;20177;-64
2022/03/17 05:18:08;;;;;;;48.13;30.45;;;9.50;99.90;;;;;;5114431;28;20070;-65
2022/03/17 05:20:36;;;;;;;43.83;26.88;;;9.50;99.90;;;;;;5096565;28;20102;-69
2022/03/17 05:23:13;;;;;;;33.72;21.67;;;9.50;99.90;;;;;;5096340;28;20509;-65
2022/03/17 05:25:40;;;;;;;18.05;12.20;;;9.40;99.90;;;;;;5114846;28;20158;-65
2022/03/17 05:28:08;;;;;;;13.82;9.65;;;9.30;99.90;;;;;;5096401;28;20571;-65
2022/03/17 05:30:35;;;;;;;11.20;8.20;;;9.10;99.90;;;;;;5114758;28;20140;-65
2022/03/17 05:33:00;;;;;;;10.18;7.95;;;8.90;99.90;;;;;;5114098;28;20048;-64
2022/03/17 05:35:26;;;;;;;11.43;8.73;;;8.70;99.90;;;;;;5114532;28;20050;-67
2022/03/17 05:37:53;;;;;;;13.25;8.05;;;8.70;99.90;;;;;;5114443;28;20069;-65
2022/03/17 05:40:19;;;;;;;13.10;7.88;;;8.60;99.90;;;;;;5113790;28;20127;-66
2022/03/17 05:42:50;;;;;;;9.43;7.00;;;8.50;99.90;;;;;;5096068;28;20048;-68
2022/03/17 05:45:16;;;;;;;11.98;8.25;;;8.50;99.90;;;;;;5095415;28;20066;-67
2022/03/17 05:47:53;;;;;;;9.98;7.43;;;8.50;99.90;;;;;;5095334;28;20134;-66
2022/03/17 05:50:22;;;;;;;11.35;7.78;;;8.50;99.90;;;;;;5095725;28;20295;-65
2022/03/17 05:52:49;;;;;;;9.43;7.05;;;8.40;99.90;;;;;;5113760;28;20126;-65
2022/03/17 05:55:17;;;;;;;13.20;7.63;;;8.40;99.90;;;;;;5112640;28;20473;-68
2022/03/17 05:57:47;;;;;;;13.82;8.10;;;8.40;99.90;;;;;;5113739;28;20063;-66
2022/03/17 06:00:16;;;;;;;15.25;8.65;;;8.40;99.90;;;;;;5095410;28;20130;-64
2022/03/17 06:02:42;;;;;;;18.42;12.38;;;8.30;99.90;;;;;;5113428;28;20065;-65
2022/03/17 06:05:09;;;;;;;21.70;11.70;;;8.30;99.90;;;;;;5113111;28;20039;-65
2022/03/17 06:07:49;;;;;;;18.20;9.90;;;8.30;99.90;;;;;;5113926;28;20134;-65
2022/03/17 06:10:17;;;;;;;18.98;9.77;;;8.20;99.90;;;;;;5113701;28;20047;-63
2022/03/17 06:12:44;;;;;;;18.00;9.00;;;8.20;99.90;;;;;;5095630;28;20059;-67
2022/03/17 06:15:11;;;;;;;22.63;9.52;;;8.20;99.90;;;;;;5112958;28;20047;-65
2022/03/17 06:17:44;;;;;;;20.92;9.25;;;8.10;99.90;;;;;;5112598;28;20079;-64
2022/03/17 06:20:15;;;;;;;17.30;9.57;;;8.10;99.90;;;;;;5113030;28;20122;-65
2022/03/17 06:22:42;;;;;;;22.05;8.27;;;8.10;99.90;;;;;;5095317;28;20055;-66
2022/03/17 06:25:11;;;;;;;16.83;8.02;;;8.00;99.90;;;;;;5112501;28;20561;-68
2022/03/17 06:27:36;;;;;;;13.63;6.38;;;8.10;99.90;;;;;;5113517;28;20126;-65
2022/03/17 06:30:07;;;;;;;11.30;5.60;;;8.10;99.90;;;;;;5094915;28;20525;-65
2022/03/17 06:32:39;;;;;;;20.33;6.25;;;8.00;99.90;;;;;;5113196;28;20131;-65
2022/03/17 06:35:09;;;;;;;16.23;5.50;;;8.00;99.90;;;;;;5113000;28;20082;-77
2022/03/17 06:37:39;;;;;;;13.70;5.55;;;8.00;99.90;;;;;;5113219;28;20039;-64
2022/03/17 06:40:06;;;;;;;9.57;4.60;;;8.00;99.90;;;;;;5112843;28;20055;-65
2022/03/17 06:42:31;;;;;;;14.02;4.72;;;8.00;99.90;;;;;;5112557;28;20051;-70
2022/03/17 06:44:57;;;;;;;14.23;4.30;;;8.10;99.90;;;;;;5112971;28;20052;-64
2022/03/17 06:47:23;;;;;;;13.38;4.82;;;8.10;99.90;;;;;;5112571;28;20131;-64
2022/03/17 06:49:50;;;;;;;9.98;3.90;;;8.00;99.90;;;;;;5113201;28;20166;-64
2022/03/17 06:52:15;;;;;;;9.70;4.20;;;8.00;99.90;;;;;;5112673;28;20625;-65
2022/03/17 06:54:41;;;;;;;11.38;4.35;;;8.00;99.90;;;;;;5112825;28;20106;-66
2022/03/17 06:57:07;;;;;;;11.07;4.32;;;8.00;99.90;;;;;;5112888;28;20424;-78
2022/03/17 06:59:33;;;;;;;12.70;3.90;;;8.00;99.90;;;;;;5112635;28;20456;-66
2022/03/17 07:01:59;;;;;;;7.68;3.03;;;8.00;99.90;;;;;;5094526;28;20043;-68
2022/03/17 07:04:24;;;;;;;12.30;3.08;;;7.90;99.90;;;;;;5094175;28;20500;-65
2022/03/17 07:06:50;;;;;;;12.00;3.35;;;8.00;99.90;;;;;;5112426;28;20082;-65
2022/03/17 07:09:16;;;;;;;10.50;2.90;;;7.90;99.90;;;;;;5093513;28;20036;-65
2022/03/17 07:11:42;;;;;;;10.68;3.10;;;7.90;99.90;;;;;;5112679;28;20051;-64
2022/03/17 07:14:08;;;;;;;14.15;3.17;;;7.90;99.90;;;;;;5112646;28;20047;-64
2022/03/17 07:16:34;;;;;;;7.38;2.45;;;7.90;99.90;;;;;;5112455;28;20044;-65
2022/03/17 07:18:59;;;;;;;11.13;2.08;;;7.90;99.90;;;;;;5112565;28;20393;-65
2022/03/17 07:21:25;;;;;;;12.05;2.72;;;7.90;99.90;;;;;;5111879;28;20044;-63
2022/03/17 07:23:51;;;;;;;10.48;2.60;;;7.90;99.90;;;;;;5112561;28;20083;-67
2022/03/17 07:26:19;;;;;;;7.90;2.33;;;7.80;99.90;;;;;;5111726;28;20465;-64
2022/03/17 07:28:45;;;;;;;10.27;2.47;;;7.90;99.90;;;;;;5112242;28;20090;-65
2022/03/17 07:31:11;;;;;;;8.48;1.90;;;7.90;99.90;;;;;;5112085;28;20477;-73
2022/03/17 07:33:37;;;;;;;9.23;2.63;;;7.90;99.90;;;;;;5111834;28;20083;-65
2022/03/17 07:36:06;;;;;;;10.32;2.72;;;7.90;99.90;;;;;;5112419;28;20048;-65
2022/03/17 07:38:32;;;;;;;7.72;2.00;;;7.90;99.90;;;;;;5093938;28;20047;-65
2022/03/17 07:40:57;;;;;;;9.40;2.35;;;7.90;99.90;;;;;;5094164;28;20051;-65
2022/03/17 07:43:25;;;;;;;11.57;2.58;;;7.90;99.90;;;;;;5111667;28;20047;-65
2022/03/17 07:45:53;;;;;;;13.48;2.60;;;7.90;99.90;;;;;;5111336;28;20499;-65
2022/03/17 07:48:18;;;;;;;14.55;2.30;;;7.80;99.90;;;;;;5111372;28;20043;-64
2022/03/17 07:50:44;;;;;;;15.98;2.85;;;7.90;99.90;;;;;;5111965;28;20442;-65
2022/03/17 07:53:10;;;;;;;14.82;3.03;;;7.90;99.90;;;;;;5093465;28;20047;-65
2022/03/17 07:55:36;;;;;;;12.93;3.70;;;7.80;99.90;;;;;;5089069;28;20048;-65
2022/03/17 07:58:03;;;;;;;17.17;7.68;;;7.80;99.90;;;;;;5091522;28;20044;-64
2022/03/17 08:00:29;;;;;;;11.90;2.50;;;7.80;99.90;;;;;;5091154;28;20439;-65
2022/03/17 08:02:55;;;;;;;8.70;2.38;;;7.90;99.90;;;;;;5090527;28;20105;-65
2022/03/17 08:05:21;;;;;;;11.52;2.67;;;7.90;99.90;;;;;;5091083;28;20044;-70
2022/03/17 08:07:48;;;;;;;10.55;2.80;;;7.90;99.90;;;;;;5091418;28;20058;-64
2022/03/17 08:10:15;;;;;;;10.07;2.33;;;7.90;99.90;;;;;;5090488;28;20105;-66
2022/03/17 08:12:41;;;;;;;14.13;2.22;;;7.90;99.90;;;;;;5090497;28;20131;-67
2022/03/17 08:15:08;;;;;;;14.13;2.65;;;7.90;99.90;;;;;;5091277;28;20043;-64
2022/03/17 08:17:34;;;;;;;22.45;3.30;;;7.90;99.90;;;;;;5090881;28;20080;-65
2022/03/17 08:19:59;;;;;;;10.02;2.35;;;8.00;99.90;;;;;;5091108;28;20055;-66
2022/03/17 08:22:26;;;;;;;17.75;2.85;;;7.90;99.90;;;;;;5091298;28;20070;-65
2022/03/17 08:24:51;;;;;;;18.08;3.28;;;7.90;99.90;;;;;;5091299;28;20044;-63
2022/03/17 08:27:17;;;;;;;17.73;3.22;;;7.90;99.90;;;;;;5090158;28;20110;-64
2022/03/17 08:29:43;;;;;;;17.33;3.53;;;7.90;99.90;;;;;;5091207;28;20054;-64
2022/03/17 08:32:09;;;;;;;17.83;3.55;;;7.90;99.90;;;;;;5091473;28;20495;-66
2022/03/17 08:34:35;;;;;;;14.57;3.60;;;7.90;99.90;;;;;;5090875;28;20140;-65
2022/03/17 08:37:02;;;;;;;16.60;3.95;;;7.90;99.90;;;;;;5091270;28;20488;-64
2022/03/17 08:39:28;;;;;;;17.98;3.63;;;7.90;99.90;;;;;;5090288;28;20109;-64
2022/03/17 08:41:56;;;;;;;17.00;3.88;;;8.00;99.90;;;;;;5095106;28;20044;-66
2022/03/17 08:44:22;;;;;;;17.58;3.33;;;8.10;99.90;;;;;;5094946;28;20052;-69
2022/03/17 08:49:32;;;;;;;13.35;3.15;;;8.00;99.90;;;;;;5093897;28;20051;-64
2022/03/17 08:52:00;;;;;;;9.80;2.30;;;8.00;99.90;;;;;;5095037;28;20044;-64
2022/03/17 08:54:28;;;;;;;12.43;2.83;;;8.00;99.90;;;;;;5096885;28;20729;-65
2022/03/17 08:56:59;;;;;;;10.27;2.63;;;7.90;99.90;;;;;;5097157;28;20115;-66
2022/03/17 08:59:30;;;;;;;12.05;2.33;;;7.90;99.90;;;;;;5097045;28;20374;-67
2022/03/17 09:01:59;;;;;;;14.90;3.30;;;7.90;99.90;;;;;;5097215;28;20092;-65
2022/03/17 09:04:27;;;;;;;14.63;3.13;;;7.90;99.90;;;;;;5097003;28;20092;-66
2022/03/17 09:06:59;;;;;;;13.23;2.58;;;7.90;99.90;;;;;;5115014;28;20035;-64
2022/03/17 09:09:26;;;;;;;12.65;2.65;;;7.90;99.90;;;;;;5114441;28;20050;-69
2022/03/17 09:11:52;;;;;;;16.63;2.60;;;7.90;99.90;;;;;;5080040;28;20051;-64
2022/03/17 09:14:18;;;;;;;19.60;3.17;;;8.00;99.90;;;;;;5114979;28;20040;-64
2022/03/17 09:16:44;;;;;;;11.40;3.28;;;8.20;99.90;;;;;;5114810;28;20058;-64
2022/03/17 09:19:10;;;;;;;10.57;2.55;;;8.20;99.90;;;;;;5096987;28;20135;-67
2022/03/17 09:21:35;;;;;;;14.27;2.75;;;8.30;99.90;;;;;;5114405;28;20150;-66
2022/03/17 09:24:03;;;;;;;15.50;3.13;;;8.20;99.90;;;;;;5114729;28;20055;-64
2022/03/17 09:26:30;;;;;;;11.50;2.78;;;8.20;99.90;;;;;;5096274;28;20382;-64
2022/03/17 09:28:56;;;;;;;14.35;2.78;;;8.20;99.90;;;;;;5114765;28;20387;-65
2022/03/17 09:31:22;;;;;;;16.75;3.42;;;8.20;99.90;;;;;;5114791;28;20044;-65
2022/03/17 09:33:48;;;;;;;13.38;2.63;;;8.20;99.90;;;;;;5114567;28;20479;-65
2022/03/17 09:36:16;;;;;;;9.80;2.22;;;8.20;99.90;;;;;;5094931;28;20104;-65
2022/03/17 09:38:42;;;;;;;9.85;2.65;;;8.30;99.90;;;;;;5114311;28;20052;-65
2022/03/17 09:41:24;;;;;;;12.88;2.40;;;8.40;99.90;;;;;;5114280;28;20489;-65
2022/03/17 09:43:53;;;;;;;12.60;3.20;;;8.50;99.90;;;;;;5113932;28;20051;-65
2022/03/17 09:46:23;;;;;;;10.70;2.67;;;8.50;99.90;;;;;;5114210;28;20075;-65
2022/03/17 09:48:53;;;;;;;10.88;2.38;;;8.60;99.90;;;;;;5114112;28;20126;-65
2022/03/17 09:51:29;;;;;;;9.38;3.20;;;8.60;99.90;;;;;;5111050;28;20130;-64
2022/03/17 09:54:00;;;;;;;14.02;3.15;;;8.70;99.90;;;;;;5094335;28;20040;-64
2022/03/17 09:56:27;;;;;;;13.75;2.60;;;8.70;99.90;;;;;;5113873;28;20063;-64
2022/03/17 09:58:55;;;;;;;8.73;2.22;;;8.70;99.90;;;;;;5113448;28;20103;-64
2022/03/17 10:01:22;;;;;;;13.93;3.10;;;8.80;99.90;;;;;;5095560;28;20055;-64
2022/03/17 10:03:48;;;;;;;10.23;2.42;;;8.90;99.90;;;;;;5095637;28;20091;-64
2022/03/17 10:06:18;;;;;;;11.68;2.60;;;9.10;99.90;;;;;;5095552;28;20043;-63
2022/03/17 10:08:45;;;;;;;18.10;4.55;;;9.20;99.90;;;;;;5095303;28;20107;-65
2022/03/17 10:11:30;;;;;;;14.52;2.70;;;9.40;99.90;;;;;;5113801;28;20048;-65
2022/03/17 10:13:59;;;;;;;13.50;3.03;;;9.60;99.90;;;;;;5113980;28;20040;-64
2022/03/17 10:16:27;;;;;;;12.68;2.70;;;9.60;99.90;;;;;;5113544;28;20092;-64
2022/03/17 10:19:06;;;;;;;10.80;2.75;;;9.60;99.90;;;;;;5113424;28;20070;-64
2022/03/17 10:21:33;;;;;;;12.60;3.03;;;9.60;99.90;;;;;;5113062;28;20519;-69
2022/03/17 10:24:06;;;;;;;12.68;2.63;;;9.60;99.90;;;;;;5095676;28;20108;-63
2022/03/17 10:26:40;;;;;;;13.70;3.20;;;9.60;99.90;;;;;;5095395;28;20047;-70
2022/03/17 10:29:09;;;;;;;14.33;3.13;;;9.60;99.90;;;;;;5095224;28;20079;-64
2022/03/17 10:31:59;;;;;;;10.48;2.67;;;9.60;99.90;;;;;;5095000;28;20052;-70
2022/03/17 10:34:35;;;;;;;11.52;2.90;;;9.70;99.90;;;;;;5113532;28;20080;-63
2022/03/17 10:37:10;;;;;;;13.73;2.80;;;9.70;99.90;;;;;;5095109;28;20118;-64
2022/03/17 10:39:38;;;;;;;16.30;3.00;;;10.00;99.90;;;;;;5112854;28;20039;-70
2022/03/17 10:42:27;;;;;;;21.88;3.30;;;10.20;99.90;;;;;;5113278;28;20044;-64
2022/03/17 10:44:58;;;;;;;14.35;3.00;;;10.40;99.90;;;;;;5112661;28;20040;-62
2022/03/17 10:47:28;;;;;;;9.43;2.70;;;10.50;99.90;;;;;;5113258;28;20130;-63
2022/03/17 10:50:10;;;;;;;10.82;2.88;;;10.50;99.90;;;;;;5077977;28;20055;-63
2022/03/17 10:52:45;;;;;;;15.00;2.95;;;10.40;99.90;;;;;;5112815;28;20050;-70
2022/03/17 10:55:11;;;;;;;17.15;3.35;;;10.30;99.90;;;;;;5094214;28;20052;-64
2022/03/17 10:57:38;;;;;;;10.73;2.95;;;10.40;99.90;;;;;;5077992;28;20062;-70
2022/03/17 11:00:09;;;;;;;14.38;3.10;;;10.30;99.90;;;;;;5113258;28;20126;-64
2022/03/17 11:02:37;;;;;;;11.65;2.90;;;10.40;99.90;;;;;;5095192;28;20102;-64
2022/03/17 11:05:10;;;;;;;15.35;2.85;;;10.40;99.90;;;;;;5112117;28;20046;-64
2022/03/17 11:07:38;;;;;;;10.82;2.38;;;10.50;99.90;;;;;;5112799;28;20051;-65
2022/03/17 11:10:05;;;;;;;13.23;2.60;;;10.60;99.90;;;;;;5112250;28;20052;-65
2022/03/17 11:12:32;;;;;;;10.00;2.28;;;10.60;99.90;;;;;;5112457;28;20051;-65
2022/03/17 11:15:00;;;;;;;7.18;2.33;;;10.70;99.90;;;;;;5111948;28;20054;-64
2022/03/17 11:17:38;;;;;;;8.95;2.67;;;10.90;99.90;;;;;;5110317;28;20048;-71
2022/03/17 11:20:10;;;;;;;9.45;2.65;;;11.10;99.90;;;;;;5111162;28;20123;-63
2022/03/17 11:22:36;;;;;;;10.05;2.58;;;11.40;99.90;;;;;;5093454;28;20058;-65
2022/03/17 11:25:28;;;;;;;9.60;2.40;;;11.40;99.90;;;;;;5111518;28;20039;-62
2022/03/17 11:27:58;;;;;;;14.52;3.35;;;11.60;99.90;;;;;;5112101;28;20070;-63
2022/03/17 11:30:29;;;;;;;8.63;2.55;;;11.60;99.90;;;;;;5077042;28;20138;-63
2022/03/17 11:32:56;;;;;;;14.50;3.60;;;11.50;99.90;;;;;;5093582;28;20485;-62
2022/03/17 11:35:28;;;;;;;11.52;2.75;;;11.40;99.90;;;;;;5112280;28;20048;-62
2022/03/17 11:38:14;;;;;;;11.82;2.58;;;11.40;99.90;;;;;;5111951;28;20493;-63
2022/03/17 11:41:08;;;;;;;12.40;2.75;;;11.50;99.90;;;;;;5094375;28;20454;-63
2022/03/17 11:43:41;;;;;;;12.55;2.92;;;11.50;99.90;;;;;;5112013;28;20089;-63
2022/03/17 11:46:13;;;;;;;6.82;2.40;;;11.50;99.90;;;;;;5094098;28;20043;-63
2022/03/17 11:48:39;;;;;;;13.60;2.90;;;11.50;99.90;;;;;;5093908;28;20428;-63
2022/03/17 11:51:06;;;;;;;9.88;2.25;;;11.30;99.90;;;;;;5093965;28;20093;-64
2022/03/17 11:53:58;;;;;;;11.15;2.95;;;11.00;99.90;;;;;;5112095;28;20051;-62
2022/03/17 11:56:37;;;;;;;13.23;3.05;;;10.80;99.90;;;;;;5106979;28;20052;-62
2022/03/17 11:59:05;;;;;;;10.52;2.78;;;10.70;99.90;;;;;;5093858;28;20628;-63
2022/03/17 12:01:34;;;;;;;10.30;2.75;;;10.60;99.90;;;;;;5094024;28;20052;-63
2022/03/17 12:04:07;;;;;;;9.90;2.78;;;10.60;99.90;;;;;;5111838;28;20209;-62
2022/03/17 12:06:37;;;;;;;6.75;2.15;;;10.60;99.90;;;;;;5112143;28;20047;-64
2022/03/17 12:09:10;;;;;;;13.07;2.33;;;10.60;99.90;;;;;;5111067;28;20043;-64
2022/03/17 12:11:42;;;;;;;10.00;2.83;;;10.70;99.90;;;;;;5111891;28;20411;-65
2022/03/17 12:14:22;;;;;;;15.52;2.88;;;10.90;99.90;;;;;;5092834;28;20051;-63
2022/03/17 12:17:09;;;;;;;7.03;2.28;;;11.00;99.90;;;;;;5111392;28;20435;-63
2022/03/17 12:19:36;;;;;;;10.05;2.42;;;11.10;99.90;;;;;;5111517;28;20446;-63
2022/03/17 12:22:13;;;;;;;10.98;2.08;;;11.10;99.90;;;;;;5092890;28;20108;-62
2022/03/17 12:24:50;;;;;;;11.02;3.15;;;11.10;99.90;;;;;;5093441;28;20083;-63
2022/03/17 12:27:29;;;;;;;16.33;3.03;;;11.10;99.90;;;;;;5111789;28;20376;-66
2022/03/17 12:30:03;;;;;;;9.82;2.65;;;11.10;99.90;;;;;;5093095;28;20055;-63
2022/03/17 12:32:39;;;;;;;10.20;2.20;;;11.10;99.90;;;;;;5111365;28;20050;-64
2022/03/17 12:35:06;;;;;;;9.52;2.65;;;11.20;99.90;;;;;;5110292;28;20495;-64
2022/03/17 12:37:34;;;;;;;8.35;2.15;;;11.10;99.90;;;;;;5111336;28;20119;-63
2022/03/17 12:40:05;;;;;;;12.55;2.63;;;11.20;99.90;;;;;;5075850;28;20501;-63
2022/03/17 12:42:39;;;;;;;10.68;2.15;;;11.20;99.90;;;;;;5093059;28;20085;-63
2022/03/17 12:45:07;;;;;;;11.90;2.08;;;11.20;99.90;;;;;;5110992;28;20126;-62
2022/03/17 12:47:34;;;;;;;11.27;2.33;;;11.20;99.90;;;;;;5111232;28;20454;-63
2022/03/17 12:50:06;;;;;;;13.48;2.83;;;11.20;99.90;;;;;;5092772;28;20485;-63
2022/03/17 12:52:32;;;;;;;16.02;3.17;;;11.20;99.90;;;;;;5111485;28;20091;-64